createdAt,value
2022-11-29T00:01:12.389Z,17.50
2022-11-29T00:03:39.252Z,17.47
2022-11-29T00:06:15.144Z,17.67
2022-11-29T00:08:42.259Z,17.67
2022-11-29T00:11:38.901Z,19.63
2022-11-29T00:14:06.862Z,19.30
2022-11-29T00:16:33.385Z,19.20
2022-11-29T00:19:00.020Z,18.27
2022-11-29T00:21:26.574Z,16.93
2022-11-29T00:23:53.243Z,17.87
2022-11-29T00:26:19.705Z,18.63
2022-11-29T00:28:46.132Z,16.60
2022-11-29T00:31:24.792Z,19.60
2022-11-29T00:33:51.905Z,19.83
2022-11-29T00:36:18.619Z,18.10
2022-11-29T00:38:45.128Z,19.60
2022-11-29T00:41:11.626Z,20.17
2022-11-29T00:43:38.632Z,18.17
2022-11-29T00:46:05.550Z,17.63
2022-11-29T00:48:32.496Z,18.70
2022-11-29T00:50:58.956Z,18.20
2022-11-29T00:53:25.364Z,20.87
2022-11-29T00:55:52.438Z,20.27
2022-11-29T00:58:19.852Z,20.87
2022-11-29T01:00:46.462Z,20.47
2022-11-29T01:03:13.194Z,19.07
2022-11-29T01:05:40.231Z,21.13
2022-11-29T01:08:06.730Z,18.10
2022-11-29T01:10:33.136Z,18.87
2022-11-29T01:12:59.543Z,19.43
2022-11-29T01:15:26.393Z,18.23
2022-11-29T01:17:53.423Z,19.90
2022-11-29T01:20:19.971Z,19.00
2022-11-29T01:22:46.572Z,18.97
2022-11-29T01:25:13.684Z,18.93
2022-11-29T01:27:40.128Z,19.70
2022-11-29T01:30:08.345Z,24.20
2022-11-29T01:32:35.105Z,20.13
2022-11-29T01:35:01.563Z,20.63
2022-11-29T01:37:31.692Z,19.10
2022-11-29T01:39:58.095Z,21.30
2022-11-29T01:42:24.567Z,19.03
2022-11-29T01:45:08.126Z,21.10
2022-11-29T01:47:38.875Z,19.17
2022-11-29T01:50:06.536Z,20.57
2022-11-29T01:52:33.110Z,19.73
2022-11-29T01:55:02.018Z,20.23
2022-11-29T01:57:29.329Z,19.93
2022-11-29T02:00:01.619Z,20.23
2022-11-29T02:02:35.174Z,18.20
2022-11-29T02:05:03.668Z,19.93
2022-11-29T02:07:30.197Z,20.67
2022-11-29T02:09:56.652Z,18.53
2022-11-29T02:12:31.131Z,20.13
2022-11-29T02:15:13.472Z,21.73
2022-11-29T02:17:58.395Z,20.73
2022-11-29T02:20:36.984Z,19.53
2022-11-29T02:23:25.320Z,19.13
2022-11-29T02:26:16.697Z,20.53
2022-11-29T02:29:14.012Z,18.90
2022-11-29T02:31:59.126Z,17.83
2022-11-29T02:34:37.155Z,21.33
2022-11-29T02:37:22.513Z,19.50
2022-11-29T02:40:01.031Z,18.90
2022-11-29T02:42:55.677Z,19.53
2022-11-29T02:45:44.957Z,20.07
2022-11-29T02:48:26.597Z,19.83
2022-11-29T02:51:13.635Z,20.47
2022-11-29T02:54:04.784Z,20.23
2022-11-29T02:56:34.133Z,18.40
2022-11-29T02:59:12.770Z,18.43
2022-11-29T03:02:23.215Z,17.97
2022-11-29T03:04:55.475Z,22.43
2022-11-29T03:07:48.933Z,20.90
2022-11-29T03:10:18.301Z,21.33
2022-11-29T03:12:47.919Z,20.73
2022-11-29T03:15:31.554Z,18.17
2022-11-29T03:18:19.878Z,22.00
2022-11-29T03:20:58.689Z,19.83
2022-11-29T03:23:28.715Z,20.37
2022-11-29T03:26:01.303Z,24.03
2022-11-29T03:28:34.942Z,21.40
2022-11-29T03:31:08.565Z,20.47
2022-11-29T03:33:48.092Z,20.77
2022-11-29T03:36:29.799Z,20.37
2022-11-29T03:38:59.825Z,20.23
2022-11-29T03:41:38.189Z,21.40
2022-11-29T03:44:18.311Z,25.10
2022-11-29T03:47:17.031Z,21.20
2022-11-29T03:49:59.308Z,19.83
2022-11-29T03:53:10.237Z,22.20
2022-11-29T03:55:59.053Z,19.57
2022-11-29T03:58:48.036Z,20.10
2022-11-29T04:01:48.542Z,19.37
2022-11-29T04:04:51.305Z,20.73
2022-11-29T04:07:44.458Z,21.50
2022-11-29T04:10:52.363Z,21.00
2022-11-29T04:13:36.008Z,19.93
2022-11-29T04:16:31.739Z,21.73
2022-11-29T04:19:35.816Z,21.77
2022-11-29T04:22:30.123Z,20.03
2022-11-29T04:24:59.483Z,21.37
2022-11-29T04:27:56.865Z,22.03
2022-11-29T04:30:25.116Z,20.23
2022-11-29T04:33:21.263Z,20.17
2022-11-29T04:36:15.775Z,24.23
2022-11-29T04:38:56.819Z,19.80
2022-11-29T04:41:44.271Z,21.20
2022-11-29T04:44:13.741Z,19.83
2022-11-29T04:46:57.886Z,20.90
2022-11-29T04:50:12.459Z,20.70
2022-11-29T04:53:02.351Z,23.37
2022-11-29T04:55:39.733Z,19.73
2022-11-29T04:58:28.569Z,20.10
2022-11-29T05:01:10.193Z,21.07
2022-11-29T05:03:49.352Z,20.97
2022-11-29T05:06:52.960Z,18.77
2022-11-29T05:09:31.863Z,18.20
2022-11-29T05:12:32.225Z,19.63
2022-11-29T05:15:10.150Z,19.10
2022-11-29T05:17:55.372Z,21.80
2022-11-29T05:20:43.595Z,20.93
2022-11-29T05:23:09.896Z,21.33
2022-11-29T05:25:48.449Z,21.47
2022-11-29T05:28:20.564Z,22.50
2022-11-29T05:31:24.726Z,20.30
2022-11-29T05:34:14.978Z,21.87
2022-11-29T05:37:00.068Z,20.20
2022-11-29T05:39:30.146Z,21.27
2022-11-29T05:42:32.332Z,22.00
2022-11-29T05:45:08.008Z,21.40
2022-11-29T05:47:43.888Z,21.10
2022-11-29T05:50:15.304Z,22.67
2022-11-29T05:52:41.605Z,21.20
2022-11-29T05:55:13.927Z,19.30
2022-11-29T05:58:04.232Z,20.83
2022-11-29T06:00:42.102Z,24.40
2022-11-29T06:03:21.787Z,21.67
2022-11-29T06:05:53.643Z,20.97
2022-11-29T06:08:50.855Z,22.30
2022-11-29T06:11:23.255Z,23.57
2022-11-29T06:14:06.775Z,21.23
2022-11-29T06:16:42.594Z,21.30
2022-11-29T06:19:50.798Z,19.47
2022-11-29T06:22:48.918Z,21.87
2022-11-29T06:25:37.200Z,20.13
2022-11-29T06:28:22.611Z,21.00
2022-11-29T06:31:28.672Z,22.73
2022-11-29T06:34:10.364Z,20.87
2022-11-29T06:36:50.517Z,20.57
2022-11-29T06:39:17.126Z,22.57
2022-11-29T06:41:43.528Z,20.57
2022-11-29T06:44:10.535Z,21.53
2022-11-29T06:46:49.624Z,22.20
2022-11-29T06:49:28.009Z,23.73
2022-11-29T06:52:15.615Z,22.10
2022-11-29T06:55:01.318Z,23.43
2022-11-29T06:57:47.343Z,22.83
2022-11-29T07:00:26.936Z,20.70
2022-11-29T07:03:25.359Z,24.23
2022-11-29T07:05:52.083Z,24.90
2022-11-29T07:08:23.387Z,24.10
2022-11-29T07:10:53.151Z,21.80
2022-11-29T07:13:20.470Z,25.67
2022-11-29T07:15:53.015Z,24.03
2022-11-29T07:18:31.556Z,22.57
2022-11-29T07:21:07.189Z,26.47
2022-11-29T07:24:09.675Z,24.10
2022-11-29T07:26:59.462Z,23.63
2022-11-29T07:29:38.424Z,23.10
2022-11-29T07:32:23.714Z,24.67
2022-11-29T07:34:56.175Z,23.07
2022-11-29T07:37:53.523Z,24.27
2022-11-29T07:40:24.190Z,23.10
2022-11-29T07:43:05.785Z,24.83
2022-11-29T07:45:36.107Z,24.50
2022-11-29T07:48:02.999Z,25.17
2022-11-29T07:50:29.794Z,22.27
2022-11-29T07:52:56.623Z,23.87
2022-11-29T07:55:24.894Z,25.00
2022-11-29T07:57:52.158Z,22.67
2022-11-29T08:00:19.496Z,23.37
2022-11-29T08:02:46.792Z,22.17
2022-11-29T08:05:13.414Z,24.10
2022-11-29T08:07:40.932Z,24.47
2022-11-29T08:10:10.709Z,27.87
2022-11-29T08:12:42.177Z,23.90
2022-11-29T08:15:09.169Z,23.97
2022-11-29T08:17:37.833Z,23.03
2022-11-29T08:20:04.940Z,26.20
2022-11-29T08:22:31.410Z,22.93
2022-11-29T08:24:58.444Z,24.77
2022-11-29T08:27:24.860Z,29.47
2022-11-29T08:29:51.305Z,23.00
2022-11-29T08:32:17.788Z,25.27
2022-11-29T08:34:44.681Z,24.13
2022-11-29T08:37:11.228Z,24.03
2022-11-29T08:39:37.666Z,27.37
2022-11-29T08:42:04.211Z,24.87
2022-11-29T08:44:30.737Z,23.30
2022-11-29T08:47:15.836Z,26.33
2022-11-29T08:50:00.916Z,27.97
2022-11-29T08:52:52.869Z,26.27
2022-11-29T08:55:22.592Z,26.97
2022-11-29T08:57:50.362Z,27.07
2022-11-29T09:00:17.769Z,28.40
2022-11-29T09:02:44.323Z,28.30
2022-11-29T09:05:11.512Z,28.23
2022-11-29T09:07:38.653Z,29.30
2022-11-29T09:10:08.184Z,27.73
2022-11-29T09:12:39.111Z,30.43
2022-11-29T09:15:07.709Z,29.10
2022-11-29T09:17:34.178Z,33.27
2022-11-29T09:20:00.602Z,30.70
2022-11-29T09:22:27.008Z,28.67
2022-11-29T09:24:53.553Z,27.10
2022-11-29T09:27:19.954Z,26.13
2022-11-29T09:29:46.380Z,28.27
2022-11-29T09:32:12.842Z,28.33
2022-11-29T09:34:39.361Z,30.07
2022-11-29T09:37:06.784Z,28.33
2022-11-29T09:39:33.196Z,30.17
2022-11-29T09:42:19.140Z,27.47
2022-11-29T09:45:14.869Z,27.43
2022-11-29T09:48:02.209Z,32.40
2022-11-29T09:50:36.801Z,27.70
2022-11-29T09:53:27.680Z,30.53
2022-11-29T09:56:27.284Z,27.43
2022-11-29T09:59:00.113Z,28.77
2022-11-29T10:01:29.748Z,26.80
2022-11-29T10:04:03.065Z,28.67
2022-11-29T10:06:38.691Z,29.17
2022-11-29T10:09:23.382Z,25.40
2022-11-29T10:12:17.588Z,29.20
2022-11-29T10:14:57.491Z,29.40
2022-11-29T10:17:33.211Z,28.07
2022-11-29T10:20:05.098Z,33.70
2022-11-29T10:22:45.363Z,30.97
2022-11-29T10:25:19.568Z,30.73
2022-11-29T10:27:45.985Z,29.00
2022-11-29T10:30:15.099Z,32.37
2022-11-29T10:32:42.902Z,29.13
2022-11-29T10:35:14.507Z,32.17
2022-11-29T10:37:41.328Z,33.27
2022-11-29T10:40:14.257Z,31.57
2022-11-29T10:42:49.681Z,34.53
2022-11-29T10:45:30.793Z,32.80
2022-11-29T10:48:11.941Z,31.57
2022-11-29T10:50:42.634Z,35.93
2022-11-29T10:53:12.028Z,32.47
2022-11-29T10:56:01.479Z,33.53
2022-11-29T10:58:30.144Z,32.27
2022-11-29T11:01:06.838Z,30.57
2022-11-29T11:04:07.413Z,36.00
2022-11-29T11:06:48.952Z,29.60
2022-11-29T11:09:38.228Z,30.97
2022-11-29T11:12:08.535Z,29.43
2022-11-29T11:14:37.623Z,33.63
2022-11-29T11:17:26.268Z,32.47
2022-11-29T11:19:58.564Z,32.80
2022-11-29T11:22:25.547Z,34.27
2022-11-29T11:25:05.592Z,33.10
2022-11-29T11:27:34.925Z,32.67
2022-11-29T11:30:03.609Z,32.47
2022-11-29T11:32:30.108Z,33.67
2022-11-29T11:34:58.602Z,34.90
2022-11-29T11:37:29.705Z,37.07
2022-11-29T11:39:58.844Z,32.83
2022-11-29T11:42:38.848Z,40.50
2022-11-29T11:45:21.380Z,42.13
2022-11-29T11:47:50.911Z,46.50
2022-11-29T11:50:45.673Z,43.63
2022-11-29T11:53:36.337Z,44.40
2022-11-29T11:56:10.775Z,39.90
2022-11-29T11:58:57.488Z,43.93
2022-11-29T12:01:32.018Z,48.10
2022-11-29T12:04:02.686Z,39.37
2022-11-29T12:06:38.022Z,40.93
2022-11-29T12:09:39.507Z,34.40
2022-11-29T12:12:23.002Z,36.33
2022-11-29T12:14:55.446Z,39.10
2022-11-29T12:17:49.088Z,42.70
2022-11-29T12:20:26.191Z,39.07
2022-11-29T12:23:14.371Z,41.87
2022-11-29T12:25:46.887Z,38.93
2022-11-29T12:28:20.013Z,45.07
2022-11-29T12:31:22.126Z,36.67
2022-11-29T12:34:00.641Z,38.53
2022-11-29T12:36:47.578Z,35.33
2022-11-29T12:39:28.039Z,41.77
2022-11-29T12:42:02.291Z,39.90
2022-11-29T12:44:50.964Z,35.07
2022-11-29T12:47:55.186Z,37.10
2022-11-29T12:50:45.621Z,37.53
2022-11-29T12:53:52.027Z,43.97
2022-11-29T12:56:27.637Z,38.60
2022-11-29T12:59:06.595Z,37.90
2022-11-29T13:01:42.278Z,40.60
2022-11-29T13:04:08.651Z,35.87
2022-11-29T13:06:59.430Z,39.03
2022-11-29T13:09:38.699Z,35.60
2022-11-29T13:12:35.577Z,38.73
2022-11-29T13:15:10.522Z,37.90
2022-11-29T13:17:43.171Z,32.43
2022-11-29T13:20:33.884Z,39.03
2022-11-29T13:23:18.250Z,31.43
2022-11-29T13:25:47.641Z,33.00
2022-11-29T13:28:25.789Z,31.17
2022-11-29T13:30:52.910Z,31.33
2022-11-29T13:33:26.458Z,29.70
2022-11-29T13:36:26.404Z,34.23
2022-11-29T13:39:17.160Z,33.40
2022-11-29T13:41:49.654Z,33.00
2022-11-29T13:44:49.807Z,36.43
2022-11-29T13:47:17.489Z,34.00
2022-11-29T13:50:12.103Z,36.30
2022-11-29T13:52:46.701Z,37.10
2022-11-29T13:55:14.004Z,36.70
2022-11-29T13:58:19.520Z,31.10
2022-11-29T14:00:45.829Z,32.00
2022-11-29T14:03:21.245Z,35.97
2022-11-29T14:05:50.078Z,32.90
2022-11-29T14:08:25.884Z,32.67
2022-11-29T14:10:55.459Z,30.03
2022-11-29T14:13:37.305Z,32.20
2022-11-29T14:16:05.057Z,30.63
2022-11-29T14:18:37.474Z,34.67
2022-11-29T14:21:04.614Z,31.60
2022-11-29T14:23:42.077Z,34.07
2022-11-29T14:26:21.535Z,37.33
2022-11-29T14:28:51.583Z,35.23
2022-11-29T14:31:46.919Z,34.27
2022-11-29T14:34:17.133Z,34.93
2022-11-29T14:36:55.047Z,35.93
2022-11-29T14:39:31.481Z,35.23
2022-11-29T14:42:18.845Z,38.90
2022-11-29T14:44:51.163Z,37.57
2022-11-29T14:47:24.042Z,36.00
2022-11-29T14:49:51.492Z,44.93
2022-11-29T14:52:33.862Z,38.87
2022-11-29T14:55:07.459Z,37.40
2022-11-29T14:58:03.563Z,36.60
2022-11-29T15:00:32.933Z,38.70
2022-11-29T15:03:21.024Z,42.20
2022-11-29T15:05:57.877Z,38.57
2022-11-29T15:09:09.547Z,44.97
2022-11-29T15:11:48.056Z,40.07
2022-11-29T15:14:40.637Z,41.47
2022-11-29T15:17:16.318Z,38.43
2022-11-29T15:20:04.256Z,39.50
2022-11-29T15:22:51.215Z,39.63
2022-11-29T15:25:20.966Z,39.50
2022-11-29T15:27:55.984Z,37.20
2022-11-29T15:30:28.729Z,39.27
2022-11-29T15:32:56.208Z,35.83
2022-11-29T15:35:22.887Z,40.30
2022-11-29T15:37:49.819Z,41.57
2022-11-29T15:40:18.629Z,44.00
2022-11-29T15:42:50.643Z,45.20
2022-11-29T15:45:33.497Z,42.37
2022-11-29T15:48:20.876Z,42.47
2022-11-29T15:50:49.829Z,40.07
2022-11-29T15:53:20.775Z,41.43
2022-11-29T15:55:49.553Z,43.03
2022-11-29T15:58:16.321Z,45.50
2022-11-29T16:00:44.215Z,38.30
2022-11-29T16:03:20.825Z,40.27
2022-11-29T16:05:50.570Z,42.03
2022-11-29T16:08:19.238Z,39.50
2022-11-29T16:10:49.368Z,36.87
2022-11-29T16:13:28.067Z,39.43
2022-11-29T16:16:09.275Z,39.87
2022-11-29T16:18:36.666Z,42.10
2022-11-29T16:21:05.960Z,41.07
2022-11-29T16:23:37.148Z,40.90
2022-11-29T16:26:23.071Z,35.73
2022-11-29T16:28:54.233Z,37.80
2022-11-29T16:31:22.908Z,36.87
2022-11-29T16:33:51.325Z,42.53
2022-11-29T16:36:21.135Z,35.13
2022-11-29T16:38:50.223Z,36.70
2022-11-29T16:41:36.484Z,39.80
2022-11-29T16:44:03.828Z,41.13
2022-11-29T16:46:33.231Z,36.67
2022-11-29T16:49:02.587Z,41.57
2022-11-29T16:51:48.027Z,36.80
2022-11-29T16:54:25.576Z,38.83
2022-11-29T16:56:53.151Z,33.27
2022-11-29T16:59:27.403Z,37.33
2022-11-29T17:01:58.074Z,35.63
2022-11-29T17:04:25.462Z,38.70
2022-11-29T17:06:55.942Z,37.07
2022-11-29T17:09:26.163Z,35.57
2022-11-29T17:11:53.375Z,38.07
2022-11-29T17:14:19.877Z,39.00
2022-11-29T17:16:49.217Z,36.27
2022-11-29T17:19:16.207Z,31.93
2022-11-29T17:21:42.656Z,36.47
2022-11-29T17:24:14.569Z,37.23
2022-11-29T17:26:42.207Z,30.93
2022-11-29T17:29:10.936Z,28.47
2022-11-29T17:31:37.882Z,31.10
2022-11-29T17:34:04.621Z,29.73
2022-11-29T17:36:31.218Z,28.40
2022-11-29T17:39:01.425Z,30.17
2022-11-29T17:41:28.610Z,26.90
2022-11-29T17:43:56.390Z,30.17
2022-11-29T17:46:31.009Z,29.90
2022-11-29T17:49:02.313Z,26.77
2022-11-29T17:51:51.289Z,28.87
2022-11-29T17:54:15.350Z,34.87
2022-11-29T17:56:41.769Z,36.03
2022-11-29T17:59:08.246Z,39.07
2022-11-29T18:01:35.910Z,40.60
2022-11-29T18:04:04.295Z,33.53
2022-11-29T18:06:37.908Z,32.27
2022-11-29T18:09:07.752Z,32.03
2022-11-29T18:11:48.200Z,29.60
2022-11-29T18:14:17.907Z,30.43
2022-11-29T18:16:47.308Z,27.00
2022-11-29T18:19:16.845Z,26.63
2022-11-29T18:21:43.285Z,24.00
2022-11-29T18:24:09.993Z,30.77
2022-11-29T18:26:37.605Z,32.83
2022-11-29T18:29:05.664Z,32.87
2022-11-29T18:31:34.681Z,32.73
2022-11-29T18:34:03.316Z,31.57
2022-11-29T18:36:31.644Z,31.77
2022-11-29T18:39:03.643Z,25.93
2022-11-29T18:41:31.141Z,32.40
2022-11-29T18:44:02.584Z,29.67
2022-11-29T18:46:36.723Z,28.77
2022-11-29T18:49:05.465Z,25.77
2022-11-29T18:51:32.201Z,28.47
2022-11-29T18:53:59.195Z,27.40
2022-11-29T18:56:27.996Z,27.93
2022-11-29T18:58:58.635Z,31.97
2022-11-29T19:01:27.711Z,33.23
2022-11-29T19:03:57.032Z,31.20
2022-11-29T19:06:27.015Z,31.77
2022-11-29T19:08:53.871Z,30.03
2022-11-29T19:11:22.118Z,28.43
2022-11-29T19:13:56.605Z,28.17
2022-11-29T19:16:24.308Z,33.00
2022-11-29T19:18:52.714Z,29.17
2022-11-29T19:21:20.250Z,30.70
2022-11-29T19:23:54.420Z,31.90
2022-11-29T19:26:21.806Z,30.20
2022-11-29T19:28:48.460Z,30.67
2022-11-29T19:31:17.069Z,27.60
2022-11-29T19:33:44.815Z,30.93
2022-11-29T19:36:21.429Z,30.77
2022-11-29T19:38:53.119Z,34.03
2022-11-29T19:41:28.702Z,31.97
2022-11-29T19:44:00.010Z,32.57
2022-11-29T19:46:29.188Z,31.23
2022-11-29T19:48:56.670Z,37.30
2022-11-29T19:51:24.493Z,34.60
2022-11-29T19:53:56.004Z,31.70
2022-11-29T19:56:23.028Z,33.73
2022-11-29T19:58:50.055Z,31.37
2022-11-29T20:01:19.502Z,35.40
2022-11-29T20:03:46.063Z,35.33
2022-11-29T20:06:15.743Z,39.83
2022-11-29T20:08:42.604Z,33.03
2022-11-29T20:11:16.993Z,36.60
2022-11-29T20:13:45.287Z,38.67
2022-11-29T20:16:15.382Z,36.87
2022-11-29T20:18:50.153Z,34.70
2022-11-29T20:21:29.077Z,36.20
2022-11-29T20:24:01.082Z,35.77
2022-11-29T20:26:28.381Z,28.67
2022-11-29T20:28:54.921Z,32.43
2022-11-29T20:31:22.982Z,31.27
2022-11-29T20:33:51.115Z,32.20
2022-11-29T20:37:02.048Z,34.90
2022-11-29T20:39:32.093Z,33.37
2022-11-29T20:42:32.311Z,31.87
2022-11-29T20:45:00.904Z,33.10
2022-11-29T20:47:44.892Z,34.80
2022-11-29T20:50:23.520Z,32.20
2022-11-29T20:53:08.942Z,30.97
2022-11-29T20:55:42.506Z,33.87
2022-11-29T20:58:12.944Z,31.53
2022-11-29T21:00:39.399Z,33.27
2022-11-29T21:03:05.868Z,34.67
2022-11-29T21:05:32.401Z,28.63
2022-11-29T21:07:58.896Z,29.83
2022-11-29T21:10:25.379Z,33.63
2022-11-29T21:12:52.057Z,32.60
2022-11-29T21:15:18.880Z,31.77
2022-11-29T21:17:45.533Z,29.63
2022-11-29T21:20:21.641Z,33.50
2022-11-29T21:23:08.973Z,32.27
2022-11-29T21:25:43.368Z,33.83
2022-11-29T21:28:12.559Z,29.53
2022-11-29T21:30:39.850Z,34.33
2022-11-29T21:33:06.718Z,31.17
2022-11-29T21:35:33.115Z,33.83
2022-11-29T21:38:01.084Z,31.20
2022-11-29T21:40:27.744Z,34.13
2022-11-29T21:42:54.150Z,35.07
2022-11-29T21:45:20.558Z,35.63
2022-11-29T21:47:47.017Z,33.27
2022-11-29T21:50:13.776Z,31.87
2022-11-29T21:52:40.506Z,34.37
2022-11-29T21:55:07.198Z,34.33
2022-11-29T21:57:33.639Z,34.57
2022-11-29T22:00:00.107Z,35.60
2022-11-29T22:02:26.597Z,39.03
2022-11-29T22:04:53.097Z,35.67
2022-11-29T22:07:19.548Z,39.70
2022-11-29T22:09:46.030Z,40.37
2022-11-29T22:12:32.539Z,37.37
2022-11-29T22:14:58.912Z,38.27
2022-11-29T22:17:25.355Z,35.40
2022-11-29T22:19:51.772Z,39.33
2022-11-29T22:22:18.166Z,39.47
2022-11-29T22:24:44.750Z,37.30
2022-11-29T22:27:11.327Z,35.40
2022-11-29T22:29:37.788Z,40.97
2022-11-29T22:32:04.400Z,39.50
2022-11-29T22:34:30.829Z,38.83
2022-11-29T22:36:57.305Z,40.23
2022-11-29T22:39:24.033Z,43.87
2022-11-29T22:41:54.280Z,40.57
2022-11-29T22:44:21.727Z,42.13
2022-11-29T22:46:48.500Z,38.77
2022-11-29T22:49:15.022Z,41.83
2022-11-29T22:51:41.521Z,40.73
2022-11-29T22:54:10.434Z,39.60
2022-11-29T22:56:41.175Z,40.40
2022-11-29T22:59:08.078Z,39.37
2022-11-29T23:01:36.885Z,40.97
2022-11-29T23:04:04.724Z,39.77
2022-11-29T23:06:40.077Z,40.57
2022-11-29T23:09:11.966Z,42.70
2022-11-29T23:11:38.858Z,46.97
2022-11-29T23:14:05.299Z,40.27
2022-11-29T23:16:32.796Z,41.33
2022-11-29T23:19:00.308Z,44.27
2022-11-29T23:21:32.321Z,44.53
2022-11-29T23:24:00.788Z,41.37
2022-11-29T23:26:37.454Z,40.30
2022-11-29T23:29:04.953Z,41.70
2022-11-29T23:31:31.706Z,46.40
2022-11-29T23:33:58.265Z,46.90
2022-11-29T23:36:24.741Z,40.93
2022-11-29T23:38:51.306Z,47.23
2022-11-29T23:41:18.322Z,44.13
2022-11-29T23:43:44.821Z,44.70
2022-11-29T23:46:19.412Z,40.63
2022-11-29T23:48:46.232Z,42.87
2022-11-29T23:51:13.208Z,44.53
2022-11-29T23:53:40.338Z,41.27
2022-11-29T23:56:10.297Z,36.23
2022-11-29T23:58:36.966Z,44.00
